Time;durP1;ratioP1;P1;durP2;ratioP2;P2;SDS_P1;SDS_P2;PMS_P1;PMS_P2;Temp;Humidity;BMP_temperature;BMP_pressure;BME280_temperature;BME280_humidity;BME280_pressure;Samples;Min_cycle;Max_cycle;Signal;HPM_P1;HPM_P2
2022/06/15 00:00:17;;;;;;;;;;;;;;;14.12;100.00;95989.25;1035731;28;19910;-69
2022/06/15 00:01:00;;;;;;;;;;;;;;;14.13;100.00;95984.78;1035682;28;19918;-71
2022/06/15 00:01:31;;;;;;;;;;;;;;;14.14;100.00;95983.69;1031335;28;20418;-71
2022/06/15 00:02:01;;;;;;;;;;;;;;;14.15;100.00;95985.25;1029737;28;19928;-70
2022/06/15 00:02:31;;;;;;;;;;;;;;;14.15;100.00;95980.78;1032872;28;19925;-71
2022/06/15 00:03:05;;;;;;;;;;;;;;;14.18;100.00;95979.44;1037700;28;20550;-70
2022/06/15 00:03:36;;;;;;;;;;;;;;;14.18;100.00;95983.94;1035496;28;19913;-70
2022/06/15 00:04:07;;;;;;;;;;;;;;;14.20;100.00;95985.22;1031415;28;19917;-73
2022/06/15 00:04:37;;;;;;;;;;;;;;;14.22;100.00;95983.09;1031255;28;20005;-69
2022/06/15 00:05:07;;;;;;;;;;;;;;;14.24;100.00;95983.59;1031795;28;20494;-73
2022/06/15 00:05:38;;;;;;;;;;;;;;;14.24;100.00;95978.31;1031633;28;19917;-71
2022/06/15 00:06:15;;;;;;;;;;;;;;;14.23;100.00;95982.03;1035576;28;19997;-69
2022/06/15 00:06:45;;;;;;;;;;;;;;;14.26;100.00;95978.06;1039551;28;20004;-72
2022/06/15 00:07:15;;;;;;;;;;;;;;;14.31;100.00;95980.63;1036113;28;20236;-72
2022/06/15 00:07:46;;;;;;;;;;;;;;;14.27;100.00;95976.97;1035689;28;20448;-71
2022/06/15 00:08:16;;;;;;;;;;;;;;;14.28;100.00;95981.97;1042504;28;19917;-71
2022/06/15 00:08:47;;;;;;;;;;;;;;;14.28;100.00;95978.53;1044124;28;19979;-70
2022/06/15 00:09:17;;;;;;;;;;;;;;;14.32;100.00;95974.31;1043925;28;19912;-70
2022/06/15 00:09:48;;;;;;;;;;;;;;;14.31;100.00;95981.41;1043780;28;19928;-71
2022/06/15 00:10:18;;;;;;;;;;;;;;;14.31;100.00;95978.78;1039681;28;19909;-70
2022/06/15 00:10:49;;;;;;;;;;;;;;;14.30;100.00;95977.19;1039603;28;19952;-73
2022/06/15 00:11:26;;;;;;;;;;;;;;;14.32;100.00;95972.44;1035260;28;19921;-72
2022/06/15 00:11:56;;;;;;;;;;;;;;;14.33;100.00;95976.66;1029659;28;19909;-69
2022/06/15 00:12:26;;;;;;;;;;;;;;;14.35;100.00;95971.88;1030957;28;20434;-69
2022/06/15 00:12:59;;;;;;;;;;;;;;;14.34;100.00;95972.94;1032226;28;19918;-70
2022/06/15 00:13:30;;;;;;;;;;;;;;;14.31;100.00;95970.84;1031853;28;19918;-70
2022/06/15 00:14:01;;;;;;;;;;;;;;;14.31;100.00;95973.47;1031097;28;19996;-70
2022/06/15 00:14:31;;;;;;;;;;;;;;;14.29;100.00;95980.91;1031538;28;19918;-70
2022/06/15 00:15:02;;;;;;;;;;;;;;;14.30;100.00;95971.91;1034329;28;19926;-70
2022/06/15 00:15:32;;;;;;;;;;;;;;;14.29;100.00;95975.63;1031681;28;20007;-71
2022/06/15 00:16:03;;;;;;;;;;;;;;;14.29;100.00;95965.09;1035727;28;19917;-69
2022/06/15 00:16:33;;;;;;;;;;;;;;;14.29;100.00;95969.56;1034992;28;19920;-72
2022/06/15 00:17:04;;;;;;;;;;;;;;;14.32;100.00;95972.44;1033274;28;20338;-71
2022/06/15 00:17:34;;;;;;;;;;;;;;;14.32;100.00;95969.81;1035602;28;19913;-69
2022/06/15 00:18:04;;;;;;;;;;;;;;;14.31;100.00;95968.22;1031882;28;19920;-69
2022/06/15 00:18:35;;;;;;;;;;;;;;;14.33;100.00;95971.38;1037720;28;19913;-72
2022/06/15 00:19:05;;;;;;;;;;;;;;;14.34;100.00;95974.78;1035332;28;19972;-72
2022/06/15 00:19:36;;;;;;;;;;;;;;;14.33;100.00;95971.38;1039727;28;19913;-69
2022/06/15 00:20:06;;;;;;;;;;;;;;;14.34;100.00;95972.94;1038127;28;19917;-70
2022/06/15 00:20:37;;;;;;;;;;;;;;;14.35;100.00;95973.72;1031634;28;19929;-69
2022/06/15 00:21:07;;;;;;;;;;;;;;;14.34;100.00;95969.50;1027438;28;20016;-72
2022/06/15 00:21:38;;;;;;;;;;;;;;;14.33;100.00;95971.38;1027769;28;19980;-68
2022/06/15 00:22:08;;;;;;;;;;;;;;;14.31;100.00;95968.22;1029882;28;19978;-69
2022/06/15 00:22:39;;;;;;;;;;;;;;;14.33;100.00;95966.09;1034958;28;19925;-68
2022/06/15 00:23:09;;;;;;;;;;;;;;;14.33;100.00;95966.09;1033854;28;20339;-71
2022/06/15 00:23:40;;;;;;;;;;;;;;;14.34;100.00;95972.94;1027618;28;19918;-69
2022/06/15 00:24:10;;;;;;;;;;;;;;;14.34;100.00;95966.88;1030328;28;20036;-70
2022/06/15 00:24:41;;;;;;;;;;;;;;;14.35;100.00;95968.44;1031363;28;19918;-71
2022/06/15 00:25:13;;;;;;;;;;;;;;;14.34;100.00;95972.94;1031010;28;20498;-74
2022/06/15 00:25:43;;;;;;;;;;;;;;;14.34;100.00;95958.94;1034395;28;19921;-69
2022/06/15 00:26:13;;;;;;;;;;;;;;;14.34;100.00;95969.50;1031346;28;19913;-72
2022/06/15 00:26:44;;;;;;;;;;;;;;;14.34;100.00;95966.88;1031104;28;19921;-69
2022/06/15 00:27:14;;;;;;;;;;;;;;;14.32;100.00;95969.03;1031455;28;19961;-69
2022/06/15 00:27:44;;;;;;;;;;;;;;;14.29;100.00;95967.72;1031255;28;20278;-70
2022/06/15 00:28:15;;;;;;;;;;;;;;;14.28;100.00;95974.03;1035514;28;19921;-71
2022/06/15 00:28:45;;;;;;;;;;;;;;;14.28;100.00;95963.50;1039117;28;19933;-71
2022/06/15 00:29:15;;;;;;;;;;;;;;;14.25;100.00;95969.34;1039469;28;19912;-71
2022/06/15 00:29:48;;;;;;;;;;;;;;;14.24;100.00;95965.13;1039396;28;19921;-72
2022/06/15 00:30:21;;;;;;;;;;;;;;;14.23;100.00;95974.09;1039483;28;20501;-71
2022/06/15 00:30:51;;;;;;;;;;;;;;;14.24;100.00;95974.91;1039615;28;19979;-70
2022/06/15 00:31:22;;;;;;;;;;;;;;;14.21;100.00;95968.31;1035263;28;20470;-70
2022/06/15 00:31:52;;;;;;;;;;;;;;;14.20;100.00;95972.03;1027114;28;19925;-69
2022/06/15 00:32:22;;;;;;;;;;;;;;;14.20;100.00;95961.47;1026595;28;19965;-70
2022/06/15 00:32:53;;;;;;;;;;;;;;;14.23;100.00;95968.84;1027381;28;19929;-70
2022/06/15 00:33:24;;;;;;;;;;;;;;;14.21;100.00;95973.59;1031444;28;20019;-70
2022/06/15 00:33:54;;;;;;;;;;;;;;;14.21;100.00;95973.59;1039999;28;19921;-70
2022/06/15 00:34:27;;;;;;;;;;;;;;;14.20;100.00;95969.38;1039507;28;19917;-71
2022/06/15 00:34:57;;;;;;;;;;;;;;;14.18;100.00;95971.50;1039666;28;19921;-73
2022/06/15 00:35:28;;;;;;;;;;;;;;;14.16;100.00;95971.03;1039779;28;19918;-71
2022/06/15 00:35:58;;;;;;;;;;;;;;;14.16;100.00;95971.03;1035360;28;20383;-70
2022/06/15 00:36:29;;;;;;;;;;;;;;;14.15;100.00;95966.78;1035398;28;19914;-67
2022/06/15 00:37:01;;;;;;;;;;;;;;;14.16;100.00;95968.38;1035001;28;19925;-69
2022/06/15 00:37:31;;;;;;;;;;;;;;;14.17;100.00;95977.06;1031683;28;20419;-70
2022/06/15 00:38:01;;;;;;;;;;;;;;;14.15;100.00;95969.44;1031056;28;19913;-71
2022/06/15 00:38:33;;;;;;;;;;;;;;;14.13;100.00;95976.84;1031074;28;20618;-72
2022/06/15 00:39:03;;;;;;;;;;;;;;;14.12;100.00;95972.66;1027521;28;19922;-69
2022/06/15 00:39:34;;;;;;;;;;;;;;;14.11;100.00;95973.69;1031130;28;20058;-73
2022/06/15 00:40:05;;;;;;;;;;;;;;;14.09;100.00;95968.72;1031115;28;19917;-72
2022/06/15 00:40:36;;;;;;;;;;;;;;;14.09;100.00;95967.94;1032833;28;20311;-70
2022/06/15 00:41:06;;;;;;;;;;;;;;;14.09;100.00;95971.34;1038938;28;20020;-72
2022/06/15 00:41:37;;;;;;;;;;;;;;;14.07;100.00;95967.41;1034355;28;20008;-68
2022/06/15 00:42:09;;;;;;;;;;;;;;;14.09;100.00;95967.94;1034274;28;19931;-73
2022/06/15 00:42:39;;;;;;;;;;;;;;;14.07;100.00;95970.03;1033321;28;20024;-70
2022/06/15 00:43:09;;;;;;;;;;;;;;;14.06;100.00;95965.84;1034986;28;19941;-74
2022/06/15 00:43:47;;;;;;;;;;;;;;;14.03;100.00;95971.66;1034416;28;19984;-70
2022/06/15 00:44:26;;;;;;;;;;;;;;;14.03;100.00;95967.19;1033083;28;19952;-71
2022/06/15 00:44:56;;;;;;;;;;;;;;;14.03;100.00;95963.75;1037397;28;19980;-73
2022/06/15 00:45:27;;;;;;;;;;;;;;;14.04;100.00;95967.97;1031001;28;19925;-70
2022/06/15 00:45:58;;;;;;;;;;;;;;;14.05;100.00;95964.25;1027039;28;19918;-68
2022/06/15 00:46:31;;;;;;;;;;;;;;;14.05;100.00;95969.53;1027253;28;20411;-72
2022/06/15 00:47:03;;;;;;;;;;;;;;;14.04;100.00;95967.97;1027729;28;19925;-72
2022/06/15 00:47:35;;;;;;;;;;;;;;;14.01;100.00;95964.03;1034737;28;19918;-74
2022/06/15 00:48:05;;;;;;;;;;;;;;;14.03;100.00;95961.13;1035230;28;20020;-71
2022/06/15 00:48:36;;;;;;;;;;;;;;;14.03;100.00;95967.19;1031261;28;20474;-71
2022/06/15 00:49:15;;;;;;;;;;;;;;;14.00;100.00;95962.47;1030862;28;19918;-69
2022/06/15 00:49:55;;;;;;;;;;;;;;;14.01;100.00;95965.88;1032230;28;19918;-71
2022/06/15 00:50:28;;;;;;;;;;;;;;;14.02;100.00;95960.34;1034186;28;19913;-70
2022/06/15 00:50:59;;;;;;;;;;;;;;;14.03;100.00;95964.53;1031168;28;19952;-69
2022/06/15 00:51:29;;;;;;;;;;;;;;;14.02;100.00;95962.97;1031272;28;20387;-70
2022/06/15 00:52:04;;;;;;;;;;;;;;;14.06;100.00;95965.84;1030676;28;20024;-69
2022/06/15 00:52:36;;;;;;;;;;;;;;;14.05;100.00;95967.69;1031587;28;19914;-73
2022/06/15 00:53:07;;;;;;;;;;;;;;;14.06;100.00;95963.19;1031193;28;20364;-69
2022/06/15 00:53:38;;;;;;;;;;;;;;;14.05;100.00;95969.53;1023068;29;20323;-70
2022/06/15 00:54:08;;;;;;;;;;;;;;;14.05;100.00;95966.88;1023686;28;19925;-69
2022/06/15 00:54:38;;;;;;;;;;;;;;;14.03;100.00;95963.75;1023297;28;19919;-71
2022/06/15 00:55:13;;;;;;;;;;;;;;;13.98;100.00;95963.78;1027535;28;20462;-70
2022/06/15 00:55:43;;;;;;;;;;;;;;;14.00;100.00;95966.94;1026644;28;19914;-71
2022/06/15 00:56:14;;;;;;;;;;;;;;;13.98;100.00;95961.94;1019826;29;20473;-71
2022/06/15 00:56:44;;;;;;;;;;;;;;;13.97;100.00;95968.28;1023299;28;19922;-70
2022/06/15 00:57:14;;;;;;;;;;;;;;;13.95;100.00;95969.63;1027250;28;20009;-72
2022/06/15 00:57:45;;;;;;;;;;;;;;;13.93;100.00;95964.63;1028580;28;19925;-71
2022/06/15 00:58:15;;;;;;;;;;;;;;;13.91;100.00;95964.91;1031335;28;19914;-70
2022/06/15 00:58:46;;;;;;;;;;;;;;;13.90;100.00;95968.59;1027301;28;19997;-70
2022/06/15 00:59:22;;;;;;;;;;;;;;;13.93;100.00;95966.50;1027000;28;20005;-72
2022/06/15 00:59:52;;;;;;;;;;;;;;;13.92;100.00;95968.34;1027855;28;20643;-73
2022/06/15 01:00:23;;;;;;;;;;;;;;;13.91;100.00;95967.53;1032112;28;19917;-71
2022/06/15 01:00:56;;;;;;;;;;;;;;;13.89;100.00;95966.25;1032767;28;19925;-70
2022/06/15 01:01:29;;;;;;;;;;;;;;;13.91;100.00;95962.25;1035111;28;19956;-70
2022/06/15 01:01:59;;;;;;;;;;;;;;;13.91;100.00;95964.13;1030448;28;19909;-68
2022/06/15 01:02:34;;;;;;;;;;;;;;;13.90;100.00;95962.56;1031869;28;19910;-71
2022/06/15 01:03:05;;;;;;;;;;;;;;;13.93;100.00;95961.22;1030839;28;20513;-70
2022/06/15 01:03:37;;;;;;;;;;;;;;;13.95;100.00;95961.72;1032437;28;20660;-70
2022/06/15 01:04:07;;;;;;;;;;;;;;;13.99;100.00;95960.09;1034961;28;20738;-71
2022/06/15 01:04:39;;;;;;;;;;;;;;;13.98;100.00;95961.16;1031461;28;19953;-70
2022/06/15 01:05:11;;;;;;;;;;;;;;;14.00;100.00;95959.03;1035425;28;19920;-71
2022/06/15 01:05:42;;;;;;;;;;;;;;;14.01;100.00;95957.97;1027145;28;19914;-69
2022/06/15 01:06:22;;;;;;;;;;;;;;;13.99;100.00;95962.75;1027373;28;19911;-70
2022/06/15 01:07:04;;;;;;;;;;;;;;;13.96;100.00;95960.66;1031293;28;19913;-71
2022/06/15 01:07:37;;;;;;;;;;;;;;;13.98;100.00;95963.78;1033472;28;19996;-70
2022/06/15 01:08:08;;;;;;;;;;;;;;;13.95;100.00;95959.88;1035127;28;19971;-69
2022/06/15 01:08:45;;;;;;;;;;;;;;;13.93;100.00;95967.28;1035303;28;20430;-66
2022/06/15 01:09:26;;;;;;;;;;;;;;;13.89;100.00;95960.97;1029747;28;19914;-69
2022/06/15 01:10:01;;;;;;;;;;;;;;;13.89;100.00;95959.13;1029388;28;20034;-72
2022/06/15 01:10:50;;;;;;;;;;;;;;;13.88;100.00;95959.38;1027173;28;19910;-69
2022/06/15 01:11:26;;;;;;;;;;;;;;;13.90;100.00;95954.63;1031052;28;19909;-69
2022/06/15 01:12:17;;;;;;;;;;;;;;;13.90;100.00;95958.06;1031296;28;19929;-73
2022/06/15 01:13:06;;;;;;;;;;;;;;;13.88;100.00;95956.75;1032673;28;19914;-69
2022/06/15 01:13:55;;;;;;;;;;;;;;;13.87;100.00;95953.34;1035279;28;19924;-73
2022/06/15 01:14:38;;;;;;;;;;;;;;;13.88;100.00;95949.66;1032078;28;20008;-69
2022/06/15 01:15:11;;;;;;;;;;;;;;;13.89;100.00;95945.94;1031252;28;19910;-70
2022/06/15 01:15:44;;;;;;;;;;;;;;;13.90;100.00;95957.28;1025206;28;19916;-69
2022/06/15 01:16:14;;;;;;;;;;;;;;;13.88;100.00;95949.66;1029594;28;19911;-71
2022/06/15 01:16:49;;;;;;;;;;;;;;;13.89;100.00;95953.84;1031045;28;20036;-70
2022/06/15 01:17:38;;;;;;;;;;;;;;;13.87;100.00;95947.28;1029083;28;19946;-71
2022/06/15 01:18:13;;;;;;;;;;;;;;;13.86;100.00;95949.13;1035181;28;19906;-70
2022/06/15 01:18:46;;;;;;;;;;;;;;;13.90;100.00;95954.63;1031183;28;19902;-73
2022/06/15 01:19:22;;;;;;;;;;;;;;;13.88;100.00;95947.00;1034677;28;19960;-72
2022/06/15 01:20:10;;;;;;;;;;;;;;;13.88;100.00;95949.66;1035280;28;20442;-70
2022/06/15 01:20:49;;;;;;;;;;;;;;;13.86;100.00;95943.84;1034303;28;19956;-69
2022/06/15 01:21:23;;;;;;;;;;;;;;;13.84;100.00;95945.19;1027224;28;19921;-71
2022/06/15 01:22:08;;;;;;;;;;;;;;;13.84;100.00;95943.34;1027254;28;19918;-69
2022/06/15 01:22:44;;;;;;;;;;;;;;;13.83;100.00;95941.00;1034694;28;20434;-71
2022/06/15 01:23:27;;;;;;;;;;;;;;;13.81;100.00;95941.25;1041693;28;19917;-70
2022/06/15 01:24:09;;;;;;;;;;;;;;;13.79;100.00;95938.13;1039287;28;20553;-71
2022/06/15 01:24:39;;;;;;;;;;;;;;;13.78;100.00;95936.56;1035206;28;19947;-73
2022/06/15 01:25:30;;;;;;;;;;;;;;;13.77;100.00;95942.88;1035261;28;19914;-71
2022/06/15 01:26:03;;;;;;;;;;;;;;;13.77;100.00;95940.25;1022740;29;19958;-68
2022/06/15 01:26:48;;;;;;;;;;;;;;;13.74;100.00;95932.88;1022984;29;20415;-71
2022/06/15 01:27:37;;;;;;;;;;;;;;;13.74;100.00;95937.38;1039624;28;20506;-69
2022/06/15 01:28:07;;;;;;;;;;;;;;;13.73;100.00;95941.88;1043482;28;19952;-69
2022/06/15 01:28:48;;;;;;;;;;;;;;;13.73;100.00;95939.22;1043277;28;19942;-69
2022/06/15 01:29:18;;;;;;;;;;;;;;;13.76;100.00;95945.81;1043574;28;19967;-69
2022/06/15 01:29:54;;;;;;;;;;;;;;;13.72;100.00;95940.28;1039377;28;20378;-70
2022/06/15 01:30:29;;;;;;;;;;;;;;;13.70;100.00;95939.78;1039150;28;20058;-69
2022/06/15 01:31:17;;;;;;;;;;;;;;;13.69;100.00;95938.22;1035199;28;20346;-72
2022/06/15 01:32:07;;;;;;;;;;;;;;;13.66;100.00;95936.13;1039182;28;19917;-72
2022/06/15 01:32:44;;;;;;;;;;;;;;;13.66;100.00;95936.91;1031500;28;19929;-68
2022/06/15 01:33:14;;;;;;;;;;;;;;;13.65;100.00;95940.63;1034984;28;19944;-67
2022/06/15 01:34:07;;;;;;;;;;;;;;;13.64;100.00;95938.25;1035244;28;20292;-71
2022/06/15 01:34:49;;;;;;;;;;;;;;;13.62;100.00;95937.75;1038764;28;20004;-68
2022/06/15 01:35:24;;;;;;;;;;;;;;;13.63;100.00;95936.69;1035028;28;20012;-71
2022/06/15 01:36:06;;;;;;;;;;;;;;;13.61;100.00;95939.56;1031039;28;20032;-71
2022/06/15 01:36:37;;;;;;;;;;;;;;;13.58;100.00;95945.44;1030952;28;19925;-70
2022/06/15 01:37:30;;;;;;;;;;;;;;;13.60;100.00;95937.22;1031472;28;20509;-71
2022/06/15 01:38:19;;;;;;;;;;;;;;;13.57;100.00;95929.88;1030176;28;19914;-70
2022/06/15 01:38:56;;;;;;;;;;;;;;;13.55;100.00;95935.44;1043865;28;19905;-69
2022/06/15 01:39:32;;;;;;;;;;;;;;;13.54;100.00;95931.19;1038910;28;19917;-74
2022/06/15 01:40:25;;;;;;;;;;;;;;;13.53;100.00;95934.91;1039269;28;19905;-72
2022/06/15 01:40:58;;;;;;;;;;;;;;;13.52;100.00;95935.97;1027049;28;19923;-69
2022/06/15 01:41:36;;;;;;;;;;;;;;;13.54;100.00;95936.47;1035189;28;19940;-70
2022/06/15 01:42:09;;;;;;;;;;;;;;;13.50;100.00;95943.38;1025367;28;19942;-71
2022/06/15 01:43:11;;;;;;;;;;;;;;;13.51;100.00;95944.16;1026887;28;19929;-70
2022/06/15 01:43:43;;;;;;;;;;;;;;;13.46;100.00;95944.19;1019756;28;19990;-70
2022/06/15 01:44:24;;;;;;;;;;;;;;;13.49;100.00;95938.38;1026833;28;19907;-69
2022/06/15 01:44:56;;;;;;;;;;;;;;;13.46;100.00;95941.56;1026224;28;19918;-71
2022/06/15 01:45:27;;;;;;;;;;;;;;;13.46;100.00;95944.19;1024814;28;19915;-71
2022/06/15 01:45:57;;;;;;;;;;;;;;;13.47;100.00;95943.13;1028604;28;19945;-72
2022/06/15 01:46:28;;;;;;;;;;;;;;;13.42;100.00;95944.75;1027364;28;20380;-69
2022/06/15 01:47:00;;;;;;;;;;;;;;;13.41;100.00;95935.28;1027250;28;19945;-70
2022/06/15 01:47:30;;;;;;;;;;;;;;;13.36;100.00;95937.94;1027002;28;19953;-68
2022/06/15 01:48:02;;;;;;;;;;;;;;;13.35;100.00;95931.09;1027287;28;20022;-71
2022/06/15 01:48:35;;;;;;;;;;;;;;;13.35;100.00;95940.84;1030951;28;20372;-69
2022/06/15 01:49:06;;;;;;;;;;;;;;;13.34;100.00;95936.63;1023422;28;20009;-69
2022/06/15 01:49:40;;;;;;;;;;;;;;;13.33;100.00;95932.44;1023241;28;20005;-71
2022/06/15 01:50:19;;;;;;;;;;;;;;;13.33;100.00;95935.84;1022933;29;19926;-69
2022/06/15 01:50:52;;;;;;;;;;;;;;;13.31;100.00;95940.63;1025285;28;19970;-72
2022/06/15 01:51:25;;;;;;;;;;;;;;;13.34;100.00;95934.78;1025305;28;20356;-69
2022/06/15 01:51:55;;;;;;;;;;;;;;;13.37;100.00;95936.09;1024762;28;20600;-71
2022/06/15 01:52:27;;;;;;;;;;;;;;;13.35;100.00;95936.38;1022884;28;20078;-70
2022/06/15 01:53:02;;;;;;;;;;;;;;;13.33;100.00;95925.31;1026806;28;19918;-72
2022/06/15 01:53:33;;;;;;;;;;;;;;;13.32;100.00;95931.66;1031963;28;20434;-69
2022/06/15 01:54:05;;;;;;;;;;;;;;;13.32;100.00;95928.22;1031048;28;19913;-69
2022/06/15 01:54:36;;;;;;;;;;;;;;;13.28;100.00;95935.91;1027901;28;20028;-70
2022/06/15 01:55:08;;;;;;;;;;;;;;;13.31;100.00;95932.72;1027586;28;20564;-69
2022/06/15 01:55:44;;;;;;;;;;;;;;;13.30;100.00;95931.13;1027681;28;19922;-70
2022/06/15 01:56:30;;;;;;;;;;;;;;;13.30;100.00;95933.75;1032129;28;19918;-69
2022/06/15 01:57:01;;;;;;;;;;;;;;;13.30;100.00;95932.97;1034650;28;19914;-69
2022/06/15 01:57:31;;;;;;;;;;;;;;;13.33;100.00;95937.69;1027439;28;19945;-70
2022/06/15 01:58:05;;;;;;;;;;;;;;;13.29;100.00;95936.69;1029245;28;19923;-69
2022/06/15 01:58:35;;;;;;;;;;;;;;;13.32;100.00;95930.88;1027600;28;19914;-69
2022/06/15 01:59:18;;;;;;;;;;;;;;;13.30;100.00;95938.25;1032125;28;19913;-70
2022/06/15 01:59:50;;;;;;;;;;;;;;;13.30;100.00;95928.47;1039601;28;19952;-71
2022/06/15 02:00:21;;;;;;;;;;;;;;;13.32;100.00;95938.78;1037209;28;19917;-70
2022/06/15 02:00:53;;;;;;;;;;;;;;;13.32;100.00;95930.88;1031610;28;19906;-69
2022/06/15 02:01:29;;;;;;;;;;;;;;;13.31;100.00;95927.44;1027311;28;20558;-70
2022/06/15 02:02:06;;;;;;;;;;;;;;;13.29;100.00;95934.81;1028049;28;19906;-70
2022/06/15 02:02:40;;;;;;;;;;;;;;;13.32;100.00;95936.91;1034610;28;19937;-71
2022/06/15 02:03:13;;;;;;;;;;;;;;;13.35;100.00;95935.59;1037612;28;20338;-69
2022/06/15 02:03:56;;;;;;;;;;;;;;;13.33;100.00;95933.22;1039622;28;19909;-69
2022/06/15 02:04:37;;;;;;;;;;;;;;;13.32;100.00;95936.91;1039444;28;19913;-72
2022/06/15 02:05:10;;;;;;;;;;;;;;;13.26;100.00;95922.19;1039158;28;19909;-70
2022/06/15 02:05:52;;;;;;;;;;;;;;;13.27;100.00;95933.53;1039598;28;19901;-70
2022/06/15 02:06:41;;;;;;;;;;;;;;;13.27;100.00;95929.03;1035343;28;19956;-71
2022/06/15 02:07:18;;;;;;;;;;;;;;;13.26;100.00;95927.47;1036695;28;19906;-69
2022/06/15 02:07:49;;;;;;;;;;;;;;;13.24;100.00;95926.94;1035933;28;19909;-67
2022/06/15 02:08:36;;;;;;;;;;;;;;;13.21;100.00;95930.91;1043116;28;19919;-68
2022/06/15 02:09:14;;;;;;;;;;;;;;;13.22;100.00;95923.78;1039717;28;19967;-71
2022/06/15 02:09:47;;;;;;;;;;;;;;;13.20;100.00;95923.25;1039502;28;19901;-72
2022/06/15 02:10:20;;;;;;;;;;;;;;;13.19;100.00;95926.97;1039678;28;19964;-68
2022/06/15 02:11:09;;;;;;;;;;;;;;;13.19;100.00;95922.47;1041404;28;19993;-70
2022/06/15 02:11:40;;;;;;;;;;;;;;;13.14;100.00;95925.13;1043984;28;19916;-69
2022/06/15 02:12:10;;;;;;;;;;;;;;;13.11;100.00;95920.44;1039111;28;19906;-69
2022/06/15 02:12:46;;;;;;;;;;;;;;;13.11;100.00;95920.44;1035287;28;19905;-69
2022/06/15 02:13:18;;;;;;;;;;;;;;;13.12;100.00;95923.84;1031163;28;20016;-73
2022/06/15 02:13:51;;;;;;;;;;;;;;;13.11;100.00;95924.88;1027550;28;19914;-69
2022/06/15 02:14:25;;;;;;;;;;;;;;;13.08;100.00;95920.97;1028779;28;19906;-71
2022/06/15 02:14:58;;;;;;;;;;;;;;;13.08;100.00;95914.94;1028433;28;19914;-69
2022/06/15 02:15:29;;;;;;;;;;;;;;;13.07;100.00;95922.03;1028594;28;19903;-68
2022/06/15 02:16:00;;;;;;;;;;;;;;;13.08;100.00;95925.47;1028476;28;19906;-68
2022/06/15 02:16:32;;;;;;;;;;;;;;;13.05;100.00;95918.88;1027465;28;19910;-69
2022/06/15 02:17:03;;;;;;;;;;;;;;;13.04;100.00;95919.94;1024066;28;19919;-70
2022/06/15 02:17:41;;;;;;;;;;;;;;;13.00;100.00;95921.53;1021033;28;19955;-70
2022/06/15 02:18:12;;;;;;;;;;;;;;;12.98;100.00;95919.19;1024591;28;20042;-70
2022/06/15 02:18:46;;;;;;;;;;;;;;;12.96;100.00;95921.31;1024688;28;19914;-69
2022/06/15 02:19:17;;;;;;;;;;;;;;;12.96;100.00;95917.88;1024638;28;19906;-72
2022/06/15 02:19:47;;;;;;;;;;;;;;;12.95;100.00;95921.59;1030806;28;19992;-69
2022/06/15 02:20:19;;;;;;;;;;;;;;;12.93;100.00;95924.47;1031481;28;20415;-69
2022/06/15 02:20:51;;;;;;;;;;;;;;;12.91;100.00;95921.34;1028239;28;20316;-70
2022/06/15 02:21:23;;;;;;;;;;;;;;;12.90;100.00;95919.75;1031388;28;19913;-72
2022/06/15 02:21:53;;;;;;;;;;;;;;;12.89;100.00;95925.31;1027384;28;19918;-69
2022/06/15 02:22:24;;;;;;;;;;;;;;;12.85;100.00;95926.91;1022986;28;19957;-71
2022/06/15 02:22:56;;;;;;;;;;;;;;;12.82;100.00;95917.69;1027381;28;19918;-70
2022/06/15 02:23:26;;;;;;;;;;;;;;;12.80;100.00;95922.44;1027476;28;19964;-68
2022/06/15 02:23:57;;;;;;;;;;;;;;;12.81;100.00;95916.13;1027765;28;19977;-68
2022/06/15 02:24:27;;;;;;;;;;;;;;;12.79;100.00;95920.88;1031499;28;19925;-71
2022/06/15 02:24:58;;;;;;;;;;;;;;;12.74;100.00;95920.88;1031402;28;19914;-70
2022/06/15 02:25:32;;;;;;;;;;;;;;;12.72;100.00;95920.38;1031486;28;19933;-69
2022/06/15 02:26:02;;;;;;;;;;;;;;;12.67;100.00;95926.44;1035317;28;19909;-71
2022/06/15 02:26:33;;;;;;;;;;;;;;;12.64;100.00;95926.22;1031569;28;19949;-69
2022/06/15 02:27:06;;;;;;;;;;;;;;;12.61;100.00;95927.56;1031866;28;19918;-69
2022/06/15 02:27:37;;;;;;;;;;;;;;;12.59;100.00;95928.88;1035869;28;19925;-68
2022/06/15 02:28:07;;;;;;;;;;;;;;;12.57;100.00;95931.75;1035570;28;19917;-71
2022/06/15 02:28:39;;;;;;;;;;;;;;;12.57;100.00;95925.72;1035911;28;20014;-70
2022/06/15 02:29:14;;;;;;;;;;;;;;;12.57;100.00;95928.34;1035297;28;19918;-70
2022/06/15 02:29:44;;;;;;;;;;;;;;;12.60;100.00;95925.19;1036077;28;19967;-71
2022/06/15 02:30:20;;;;;;;;;;;;;;;12.59;100.00;95931.50;1035577;28;20425;-69
2022/06/15 02:30:50;;;;;;;;;;;;;;;12.58;100.00;95929.94;1035300;28;19922;-70
2022/06/15 02:31:21;;;;;;;;;;;;;;;12.59;100.00;95934.13;1036285;28;19926;-69
2022/06/15 02:31:55;;;;;;;;;;;;;;;12.61;100.00;95924.09;1039496;28;19944;-69
2022/06/15 02:32:26;;;;;;;;;;;;;;;12.66;100.00;95929.38;1030445;28;19918;-71
2022/06/15 02:32:56;;;;;;;;;;;;;;;12.65;100.00;95931.22;1031348;28;19953;-71
2022/06/15 02:33:26;;;;;;;;;;;;;;;12.67;100.00;95929.09;1027481;28;19966;-70
2022/06/15 02:33:59;;;;;;;;;;;;;;;12.67;100.00;95920.41;1027214;28;19914;-69
2022/06/15 02:34:29;;;;;;;;;;;;;;;12.67;100.00;95933.56;1031690;28;20004;-69
2022/06/15 02:34:59;;;;;;;;;;;;;;;12.68;100.00;95924.63;1035712;28;20312;-69
2022/06/15 02:35:30;;;;;;;;;;;;;;;12.68;100.00;95932.53;1039542;28;19913;-72
2022/06/15 02:36:00;;;;;;;;;;;;;;;12.69;100.00;95934.09;1039458;28;19925;-71
2022/06/15 02:36:32;;;;;;;;;;;;;;;12.66;100.00;95924.09;1043860;28;20011;-70
2022/06/15 02:37:03;;;;;;;;;;;;;;;12.64;100.00;95926.22;1039483;28;19917;-70
2022/06/15 02:37:33;;;;;;;;;;;;;;;12.63;100.00;95933.31;1039473;28;19991;-72
2022/06/15 02:38:04;;;;;;;;;;;;;;;12.64;100.00;95934.09;1039220;28;20546;-70
2022/06/15 02:38:35;;;;;;;;;;;;;;;12.62;100.00;95926.50;1035750;28;19910;-69
2022/06/15 02:39:06;;;;;;;;;;;;;;;12.61;100.00;95926.75;1039179;28;20374;-69
2022/06/15 02:39:36;;;;;;;;;;;;;;;12.61;100.00;95932.00;1031395;28;19919;-74
2022/06/15 02:40:10;;;;;;;;;;;;;;;12.61;100.00;95932.00;1031939;28;20351;-69
2022/06/15 02:40:41;;;;;;;;;;;;;;;12.59;100.00;95929.66;1035292;28;20418;-69
2022/06/15 02:41:11;;;;;;;;;;;;;;;12.58;100.00;95933.34;1036604;28;19909;-69
2022/06/15 02:41:41;;;;;;;;;;;;;;;12.57;100.00;95929.13;1043841;28;19913;-69
2022/06/15 02:42:22;;;;;;;;;;;;;;;12.56;100.00;95932.81;1038867;28;20012;-69
2022/06/15 02:42:52;;;;;;;;;;;;;;;12.54;100.00;95931.50;1035466;28;19909;-70
2022/06/15 02:43:24;;;;;;;;;;;;;;;12.53;100.00;95929.94;1035409;28;19917;-69
2022/06/15 02:43:55;;;;;;;;;;;;;;;12.54;100.00;95931.50;1032976;28;19914;-70
2022/06/15 02:44:25;;;;;;;;;;;;;;;12.50;100.00;95932.06;1035455;28;19921;-70
2022/06/15 02:44:56;;;;;;;;;;;;;;;12.47;100.00;95935.25;1035465;28;19910;-71
2022/06/15 02:45:28;;;;;;;;;;;;;;;12.49;100.00;95933.13;1035753;28;19913;-69
2022/06/15 02:45:59;;;;;;;;;;;;;;;12.49;100.00;95941.00;1035283;28;19961;-68
2022/06/15 02:46:31;;;;;;;;;;;;;;;12.44;100.00;95927.88;1031948;28;20271;-69
2022/06/15 02:47:01;;;;;;;;;;;;;;;12.44;100.00;95933.16;1027275;28;19911;-69
2022/06/15 02:47:31;;;;;;;;;;;;;;;12.43;100.00;95934.19;1019795;29;20001;-68
2022/06/15 02:48:02;;;;;;;;;;;;;;;12.45;100.00;95934.72;1019504;29;20010;-72
2022/06/15 02:48:33;;;;;;;;;;;;;;;12.44;100.00;95933.16;1023714;28;20045;-70
2022/06/15 02:49:03;;;;;;;;;;;;;;;12.43;100.00;95928.94;1027642;28;20601;-67
2022/06/15 02:49:34;;;;;;;;;;;;;;;12.43;100.00;95926.28;1031489;28;19959;-70
2022/06/15 02:50:04;;;;;;;;;;;;;;;12.43;100.00;95930.78;1031319;28;20356;-72
2022/06/15 02:50:39;;;;;;;;;;;;;;;12.41;100.00;95927.63;1031468;28;20524;-69
2022/06/15 02:51:14;;;;;;;;;;;;;;;12.38;100.00;95922.91;1031932;28;19961;-69
2022/06/15 02:51:49;;;;;;;;;;;;;;;12.33;100.00;95921.06;1028605;28;19918;-72
2022/06/15 02:52:20;;;;;;;;;;;;;;;12.32;100.00;95927.41;1026817;28;19924;-69